Time;durP1;ratioP1;P1;durP2;ratioP2;P2;SDS_P1;SDS_P2;PMS_P1;PMS_P2;Temp;Humidity;BMP_temperature;BMP_pressure;BME280_temperature;BME280_humidity;BME280_pressure;Samples;Min_cycle;Max_cycle;Signal;HPM_P1;HPM_P2
2022/04/30 00:01:09;;;;;;;1.17;1.17;;;14.00;99.90;;;;;;5043439;28;20232;-63
2022/04/30 00:03:38;;;;;;;1.10;1.10;;;14.00;99.90;;;;;;5040862;28;20323;-65
2022/04/30 00:06:05;;;;;;;1.00;1.00;;;13.90;99.90;;;;;;5042139;28;20662;-64
2022/04/30 00:08:32;;;;;;;1.20;1.20;;;13.90;99.90;;;;;;5039496;28;20201;-64
2022/04/30 00:10:59;;;;;;;0.98;0.98;;;13.80;99.90;;;;;;5045789;28;20232;-65
2022/04/30 00:13:26;;;;;;;1.10;1.10;;;13.80;99.90;;;;;;5041421;28;20277;-64
2022/04/30 00:15:54;;;;;;;1.00;1.00;;;13.80;99.90;;;;;;5045531;28;20295;-62
2022/04/30 00:18:21;;;;;;;1.10;1.10;;;13.80;99.90;;;;;;5040958;28;20209;-63
2022/04/30 00:20:48;;;;;;;0.85;0.85;;;13.90;99.90;;;;;;5042668;28;20223;-64
2022/04/30 00:23:21;;;;;;;0.95;0.95;;;14.00;99.90;;;;;;5039889;28;20303;-63
2022/04/30 00:25:50;;;;;;;1.10;1.10;;;14.00;99.90;;;;;;5036858;28;20292;-65
2022/04/30 00:28:18;;;;;;;0.90;0.90;;;14.00;99.90;;;;;;5038352;28;20203;-64
2022/04/30 00:30:45;;;;;;;1.02;1.02;;;14.00;99.90;;;;;;5036523;28;20235;-65
2022/04/30 00:33:14;;;;;;;1.42;1.10;;;14.00;99.90;;;;;;5040218;28;20228;-65
2022/04/30 00:35:42;;;;;;;1.00;1.00;;;13.80;99.90;;;;;;5041202;28;20240;-64
2022/04/30 00:38:09;;;;;;;1.23;1.15;;;13.80;99.90;;;;;;5038372;28;20624;-64
2022/04/30 00:40:36;;;;;;;1.10;1.10;;;13.80;99.90;;;;;;5039112;28;20289;-66
2022/04/30 00:43:04;;;;;;;1.33;1.20;;;13.70;99.90;;;;;;5044838;28;20214;-64
2022/04/30 00:45:30;;;;;;;1.10;1.10;;;13.80;99.90;;;;;;5037236;28;20207;-63
2022/04/30 00:47:58;;;;;;;1.20;1.20;;;13.80;99.90;;;;;;5037411;28;20653;-63
2022/04/30 00:50:28;;;;;;;1.10;1.10;;;13.80;99.90;;;;;;5040936;28;20606;-63
2022/04/30 00:52:58;;;;;;;1.05;1.05;;;13.80;99.90;;;;;;5037927;28;20201;-64
2022/04/30 00:55:29;;;;;;;1.15;1.15;;;13.80;99.90;;;;;;5046760;28;20663;-63
2022/04/30 00:58:01;;;;;;;1.05;1.05;;;13.90;99.90;;;;;;5036307;28;20268;-67
2022/04/30 01:00:29;;;;;;;1.33;1.25;;;14.00;99.90;;;;;;5039276;28;20329;-63
2022/04/30 01:02:56;;;;;;;1.40;1.40;;;14.00;99.90;;;;;;5033086;28;20216;-64
2022/04/30 01:05:23;;;;;;;1.33;1.33;;;14.00;99.90;;;;;;5039429;28;20209;-66
2022/04/30 01:07:52;;;;;;;1.30;1.30;;;14.00;99.90;;;;;;5035477;28;20266;-65
2022/04/30 01:10:20;;;;;;;1.20;1.20;;;14.00;99.90;;;;;;5060122;28;20226;-64
2022/04/30 01:12:48;;;;;;;1.58;1.48;;;14.00;99.90;;;;;;5069782;28;20231;-65
2022/04/30 01:15:15;;;;;;;1.50;1.40;;;14.00;99.90;;;;;;5069907;28;20199;-64
2022/04/30 01:17:43;;;;;;;1.30;1.30;;;14.00;99.90;;;;;;5069946;28;20855;-64
2022/04/30 01:20:12;;;;;;;1.30;1.30;;;14.00;99.90;;;;;;5069253;28;20223;-65
2022/04/30 01:23:03;;;;;;;1.25;1.25;;;14.00;99.90;;;;;;5070024;28;20301;-65
2022/04/30 01:25:32;;;;;;;1.50;1.40;;;14.10;99.90;;;;;;5063193;28;20207;-66
2022/04/30 01:27:59;;;;;;;1.48;1.48;;;14.00;99.90;;;;;;5069250;28;20210;-64
2022/04/30 01:30:27;;;;;;;1.20;1.20;;;14.00;99.90;;;;;;5070093;28;20227;-63
2022/04/30 01:38:23;;;;;;;1.30;1.30;;;14.10;99.90;;;;;;5085568;28;20700;-64
2022/04/30 01:40:51;;;;;;;1.73;1.63;;;14.00;99.90;;;;;;5085002;28;20273;-64
2022/04/30 01:43:19;;;;;;;1.65;1.55;;;14.00;99.90;;;;;;5085720;28;20292;-64
2022/04/30 01:45:47;;;;;;;1.83;1.73;;;14.00;99.90;;;;;;5086074;28;20207;-63
2022/04/30 01:48:14;;;;;;;1.70;1.60;;;14.00;99.90;;;;;;5079723;28;20241;-63
2022/04/30 01:50:42;;;;;;;1.80;1.70;;;13.90;99.90;;;;;;5071179;28;20581;-66
2022/04/30 01:53:09;;;;;;;1.50;1.45;;;13.90;99.90;;;;;;5072441;28;20817;-64
2022/04/30 01:55:36;;;;;;;1.60;1.60;;;13.90;99.90;;;;;;5075210;28;20207;-65
2022/04/30 01:58:04;;;;;;;1.50;1.50;;;13.90;99.90;;;;;;5075810;28;20294;-64
2022/04/30 02:00:31;;;;;;;1.63;1.60;;;13.80;99.90;;;;;;5067833;28;20743;-65
2022/04/30 02:03:06;;;;;;;1.40;1.40;;;13.80;99.90;;;;;;5052793;28;20203;-65
2022/04/30 02:05:33;;;;;;;1.53;1.53;;;13.80;99.90;;;;;;5060150;28;20226;-63
2022/04/30 02:08:04;;;;;;;1.60;1.50;;;13.90;99.90;;;;;;5061034;28;20203;-65
2022/04/30 02:10:34;;;;;;;1.40;1.40;;;13.90;99.90;;;;;;5070086;28;20223;-65
2022/04/30 02:13:03;;;;;;;1.63;1.52;;;14.00;99.90;;;;;;5070615;28;20237;-64
2022/04/30 02:15:32;;;;;;;1.77;1.75;;;14.00;99.90;;;;;;5069348;28;20253;-63
2022/04/30 02:18:00;;;;;;;1.40;1.40;;;13.90;99.90;;;;;;5069116;28;20212;-64
2022/04/30 02:20:29;;;;;;;1.55;1.55;;;13.90;99.90;;;;;;5069639;28;20318;-63
2022/04/30 02:22:57;;;;;;;1.77;1.67;;;13.90;99.90;;;;;;5069760;28;20207;-63
2022/04/30 02:25:25;;;;;;;1.52;1.50;;;13.90;99.90;;;;;;5068962;28;20294;-64
2022/04/30 02:27:54;;;;;;;1.80;1.70;;;14.00;99.90;;;;;;5070763;28;20250;-64
2022/04/30 02:30:23;;;;;;;1.90;1.80;;;14.00;99.90;;;;;;5070371;28;20770;-65
2022/04/30 02:32:53;;;;;;;1.90;1.80;;;14.00;99.90;;;;;;5069827;28;20322;-64
2022/04/30 02:35:21;;;;;;;1.60;1.50;;;14.00;99.90;;;;;;5069626;28;20230;-65
2022/04/30 02:37:50;;;;;;;1.50;1.40;;;14.00;99.90;;;;;;5069945;28;20294;-64
2022/04/30 02:40:17;;;;;;;1.38;1.38;;;14.00;99.90;;;;;;5068700;28;20227;-65
2022/04/30 02:42:46;;;;;;;1.50;1.40;;;14.20;99.90;;;;;;5070070;28;20225;-65
2022/04/30 02:45:13;;;;;;;1.80;1.70;;;14.20;99.90;;;;;;5071921;28;20499;-64
2022/04/30 02:47:41;;;;;;;1.70;1.60;;;14.20;99.90;;;;;;5076700;28;20238;-63
2022/04/30 02:50:12;;;;;;;1.60;1.50;;;14.20;99.90;;;;;;5064210;28;20314;-63
2022/04/30 02:52:41;;;;;;;1.60;1.50;;;14.20;99.90;;;;;;5065611;28;20246;-63
2022/04/30 02:55:09;;;;;;;1.40;1.40;;;14.20;99.90;;;;;;5073279;28;20238;-65
2022/04/30 02:59:53;;;;;;;1.87;1.77;;;14.20;99.90;;;;;;5072217;28;20641;-64
2022/04/30 03:00:28;;;;;;;1.50;1.50;;;14.20;99.90;;;;;;5072418;28;20239;-64
2022/04/30 03:02:55;;;;;;;1.50;1.50;;;14.10;99.90;;;;;;5073334;28;20203;-63
2022/04/30 03:05:24;;;;;;;1.75;1.65;;;14.10;99.90;;;;;;5073507;28;20207;-64
2022/04/30 03:07:52;;;;;;;1.63;1.53;;;14.10;99.90;;;;;;5072605;28;20241;-63
2022/04/30 03:10:19;;;;;;;1.50;1.50;;;14.00;99.90;;;;;;5072098;28;20223;-65
2022/04/30 03:12:46;;;;;;;1.65;1.58;;;14.00;99.90;;;;;;5072863;28;20262;-64
2022/04/30 03:15:13;;;;;;;1.70;1.60;;;13.90;99.90;;;;;;5073079;28;20211;-64
2022/04/30 03:23:10;;;;;;;1.65;1.60;;;13.90;99.90;;;;;;5060323;28;20219;-65
2022/04/30 03:25:37;;;;;;;2.58;1.83;;;13.80;99.90;;;;;;5064751;28;20282;-63
2022/04/30 03:28:04;;;;;;;1.50;1.40;;;13.80;99.90;;;;;;5072256;28;20298;-63
2022/04/30 03:30:31;;;;;;;1.70;1.60;;;13.70;99.90;;;;;;5074193;28;20291;-63
2022/04/30 03:32:58;;;;;;;1.70;1.60;;;13.70;99.90;;;;;;5075151;28;20233;-63
2022/04/30 03:35:27;;;;;;;1.70;1.60;;;13.60;99.90;;;;;;5076375;28;20251;-63
2022/04/30 03:37:53;;;;;;;1.80;1.70;;;13.50;99.90;;;;;;5076316;28;20207;-64
2022/04/30 03:40:22;;;;;;;1.70;1.60;;;13.40;99.90;;;;;;5074346;28;20314;-63
2022/04/30 03:42:49;;;;;;;1.50;1.50;;;13.30;99.90;;;;;;5074886;28;20199;-65
2022/04/30 03:45:16;;;;;;;1.58;1.48;;;13.40;99.90;;;;;;5075145;28;20203;-63
2022/04/30 03:47:43;;;;;;;1.52;1.50;;;13.40;99.90;;;;;;5076648;28;20282;-65
2022/04/30 03:50:10;;;;;;;1.42;1.42;;;13.40;99.90;;;;;;5071183;28;20291;-63
2022/04/30 03:52:38;;;;;;;1.52;1.50;;;13.40;99.90;;;;;;5068521;28;20231;-63
2022/04/30 03:55:07;;;;;;;1.70;1.60;;;13.40;99.90;;;;;;5066874;28;20326;-64
2022/04/30 03:57:34;;;;;;;1.58;1.52;;;13.30;99.90;;;;;;5056319;28;20219;-64
2022/04/30 04:00:01;;;;;;;2.00;1.90;;;13.30;99.90;;;;;;5056600;28;20304;-63
2022/04/30 04:02:28;;;;;;;1.80;1.70;;;13.20;99.90;;;;;;5055870;28;20195;-64
2022/04/30 04:04:56;;;;;;;1.85;1.75;;;13.10;99.90;;;;;;5056289;28;20237;-64
2022/04/30 04:07:23;;;;;;;1.80;1.70;;;13.10;99.90;;;;;;5057964;28;20303;-63
2022/04/30 04:09:51;;;;;;;1.73;1.63;;;13.00;99.90;;;;;;5059625;28;20270;-63
2022/04/30 04:12:18;;;;;;;1.92;1.80;;;12.90;99.90;;;;;;5056995;28;20311;-63
2022/04/30 04:17:41;;;;;;;2.00;1.90;;;12.90;99.90;;;;;;5052832;28;20202;-63
2022/04/30 04:20:10;;;;;;;1.63;1.60;;;12.90;99.90;;;;;;5051195;28;20243;-63
2022/04/30 04:22:37;;;;;;;1.60;1.60;;;12.90;99.90;;;;;;5050191;28;20295;-63
2022/04/30 04:27:55;;;;;;;1.70;1.67;;;12.90;99.90;;;;;;5051904;28;20207;-64
2022/04/30 04:30:22;;;;;;;1.85;1.75;;;12.90;99.90;;;;;;5050858;28;20223;-63
2022/04/30 04:32:49;;;;;;;1.80;1.70;;;12.90;99.90;;;;;;5049497;28;20301;-63
2022/04/30 04:35:16;;;;;;;1.90;1.80;;;12.80;99.90;;;;;;5050490;28;20617;-63
2022/04/30 04:37:44;;;;;;;1.70;1.60;;;12.90;99.90;;;;;;5051590;28;20652;-63
2022/04/30 04:40:14;;;;;;;1.20;1.20;;;12.90;99.90;;;;;;5055865;28;20300;-63
2022/04/30 04:42:42;;;;;;;1.50;1.50;;;12.90;99.90;;;;;;5056817;28;20657;-63
2022/04/30 04:45:10;;;;;;;1.97;1.87;;;13.00;99.90;;;;;;5050607;28;20732;-62
2022/04/30 04:47:39;;;;;;;2.25;2.15;;;13.00;99.90;;;;;;5051413;28;20204;-63
2022/04/30 04:50:08;;;;;;;2.17;2.08;;;13.00;99.90;;;;;;5050548;28;20874;-62
2022/04/30 04:52:35;;;;;;;2.10;2.00;;;13.00;99.90;;;;;;5052634;28;20306;-65
2022/04/30 04:55:02;;;;;;;2.17;2.08;;;13.00;99.90;;;;;;5050700;28;20393;-64
2022/04/30 04:57:31;;;;;;;1.90;1.80;;;13.10;99.90;;;;;;5051083;28;20226;-63
2022/04/30 04:59:58;;;;;;;2.08;1.98;;;13.10;99.90;;;;;;5050396;28;20303;-63
2022/04/30 05:02:25;;;;;;;2.00;1.90;;;13.30;99.90;;;;;;5051024;28;20291;-63
2022/04/30 05:04:51;;;;;;;2.00;1.90;;;13.40;99.90;;;;;;5049645;28;20204;-64
2022/04/30 05:07:19;;;;;;;1.70;1.70;;;13.30;99.90;;;;;;5051514;28;20188;-63
2022/04/30 05:09:46;;;;;;;2.05;1.95;;;13.30;99.90;;;;;;5050427;28;20330;-64
2022/04/30 05:12:13;;;;;;;2.35;2.25;;;13.40;99.90;;;;;;5050979;28;20227;-65
2022/04/30 05:14:41;;;;;;;2.63;2.30;;;13.40;99.90;;;;;;5052321;28;20215;-63
2022/04/30 05:17:08;;;;;;;2.60;2.40;;;13.30;99.90;;;;;;5055128;28;20239;-63
2022/04/30 05:19:35;;;;;;;2.30;2.20;;;13.30;99.90;;;;;;5056904;28;20283;-63
2022/04/30 05:22:02;;;;;;;2.83;2.73;;;13.30;99.90;;;;;;5052941;28;20660;-63
2022/04/30 05:24:29;;;;;;;2.70;2.60;;;13.30;99.90;;;;;;5050818;28;20565;-63
2022/04/30 05:26:56;;;;;;;2.90;2.80;;;13.40;99.90;;;;;;5049410;28;20273;-64
2022/04/30 05:29:23;;;;;;;2.65;2.45;;;13.40;99.90;;;;;;5049886;28;20240;-63
2022/04/30 05:31:52;;;;;;;2.40;2.30;;;13.40;99.90;;;;;;5049892;28;20307;-64
2022/04/30 05:34:19;;;;;;;2.90;2.70;;;13.50;99.90;;;;;;5049485;28;20298;-64
2022/04/30 05:36:46;;;;;;;3.20;3.10;;;13.60;99.90;;;;;;5049319;28;20365;-64
2022/04/30 05:39:13;;;;;;;3.30;3.17;;;13.50;99.90;;;;;;5049131;28;20286;-62
2022/04/30 05:41:39;;;;;;;2.90;2.80;;;13.60;99.90;;;;;;5049312;28;20351;-64
2022/04/30 05:44:06;;;;;;;3.30;3.10;;;13.60;99.90;;;;;;5061228;28;21199;-64
2022/04/30 05:46:33;;;;;;;2.90;2.80;;;13.70;99.90;;;;;;5091834;22;20313;-66
2022/04/30 05:49:01;;;;;;;2.88;2.78;;;13.70;99.90;;;;;;5073744;28;20290;-66
2022/04/30 05:51:28;;;;;;;3.55;3.35;;;13.80;99.90;;;;;;5082258;28;20287;-66
2022/04/30 05:53:55;;;;;;;3.28;3.13;;;13.80;99.90;;;;;;5091277;28;20321;-68
2022/04/30 05:56:22;;;;;;;3.10;3.00;;;13.90;99.90;;;;;;5091124;28;20313;-66
2022/04/30 05:58:49;;;;;;;3.40;3.20;;;13.90;99.90;;;;;;5090978;28;20203;-67
2022/04/30 06:01:16;;;;;;;3.20;3.00;;;14.00;99.90;;;;;;5090820;28;20297;-67
2022/04/30 06:03:43;;;;;;;3.17;3.03;;;14.00;99.90;;;;;;5091351;28;20207;-68
2022/04/30 06:06:11;;;;;;;3.50;3.30;;;14.00;99.90;;;;;;5091358;28;20254;-70
2022/04/30 06:08:38;;;;;;;3.13;2.92;;;14.10;99.90;;;;;;5080813;28;20204;-68
2022/04/30 06:11:05;;;;;;;2.92;2.83;;;14.00;99.90;;;;;;5076697;28;20838;-68
2022/04/30 06:13:32;;;;;;;3.67;3.47;;;14.10;99.90;;;;;;5082796;28;20281;-68
2022/04/30 06:15:59;;;;;;;3.20;3.00;;;14.10;99.90;;;;;;5090132;28;20229;-67
2022/04/30 06:18:26;;;;;;;3.55;3.35;;;14.20;99.90;;;;;;5090412;28;20293;-67
2022/04/30 06:20:53;;;;;;;3.90;3.63;;;14.20;99.90;;;;;;5096020;28;20205;-67
2022/04/30 06:23:22;;;;;;;4.10;3.80;;;14.20;99.90;;;;;;5091016;28;20209;-67
2022/04/30 06:25:49;;;;;;;3.65;3.45;;;14.20;99.90;;;;;;5091363;28;20317;-67
2022/04/30 06:28:16;;;;;;;4.05;3.85;;;14.10;99.90;;;;;;5093681;28;20333;-67
2022/04/30 06:30:43;;;;;;;4.38;4.18;;;14.10;99.90;;;;;;5085979;28;20207;-68
2022/04/30 06:33:11;;;;;;;4.10;3.90;;;13.90;99.90;;;;;;5075263;28;20770;-69
2022/04/30 06:35:38;;;;;;;4.38;4.07;;;13.90;99.90;;;;;;5070455;28;20250;-69
2022/04/30 06:38:06;;;;;;;4.30;4.10;;;13.70;99.90;;;;;;5075826;28;20227;-68
2022/04/30 06:40:34;;;;;;;4.43;4.22;;;13.70;99.90;;;;;;5073189;28;20207;-68
2022/04/30 06:43:02;;;;;;;4.30;4.10;;;13.70;99.90;;;;;;5079711;28;20200;-68
2022/04/30 06:45:30;;;;;;;3.78;3.58;;;13.70;99.90;;;;;;5084334;28;20769;-67
2022/04/30 06:47:57;;;;;;;4.10;3.90;;;13.70;99.90;;;;;;5083015;28;20802;-66
2022/04/30 06:50:24;;;;;;;4.00;3.72;;;13.70;99.90;;;;;;5077076;28;20210;-68
2022/04/30 06:58:21;;;;;;;4.10;3.90;;;13.90;99.90;;;;;;5068647;28;20210;-68
2022/04/30 07:03:32;;;;;;;3.90;3.70;;;14.00;99.90;;;;;;5079730;28;20256;-68
2022/04/30 07:06:04;;;;;;;4.80;4.50;;;14.10;99.90;;;;;;5067395;28;20338;-70
2022/04/30 07:08:33;;;;;;;3.90;3.70;;;14.00;99.90;;;;;;5079137;28;20208;-67
2022/04/30 07:11:03;;;;;;;4.40;4.10;;;13.90;99.90;;;;;;5074440;28;20203;-69
2022/04/30 07:13:31;;;;;;;4.43;4.20;;;13.70;99.90;;;;;;5079807;28;20758;-68
2022/04/30 07:15:58;;;;;;;4.30;4.05;;;13.70;99.90;;;;;;5079112;28;20223;-67
2022/04/30 07:18:25;;;;;;;4.35;4.15;;;13.70;99.90;;;;;;5082053;28;20207;-69
2022/04/30 07:20:53;;;;;;;4.30;4.10;;;13.70;99.90;;;;;;5075099;28;20230;-72
2022/04/30 07:23:20;;;;;;;4.10;3.90;;;13.60;99.90;;;;;;5073122;28;20249;-69
2022/04/30 07:25:47;;;;;;;4.20;4.00;;;13.70;99.90;;;;;;5080462;28;20305;-69
2022/04/30 07:28:15;;;;;;;3.80;3.60;;;13.70;99.90;;;;;;5061140;28;20622;-68
2022/04/30 07:30:42;;;;;;;4.07;3.88;;;13.90;99.90;;;;;;5088019;28;20286;-67
2022/04/30 07:33:09;;;;;;;3.97;3.77;;;13.90;99.90;;;;;;5090189;28;20246;-67
2022/04/30 07:35:36;;;;;;;3.70;3.50;;;13.90;99.90;;;;;;5083735;28;20222;-69
2022/04/30 07:38:03;;;;;;;3.92;3.70;;;14.00;99.90;;;;;;5077892;28;20318;-69
2022/04/30 07:40:30;;;;;;;3.63;3.42;;;14.10;99.90;;;;;;5066257;28;20231;-67
2022/04/30 07:42:57;;;;;;;3.92;3.72;;;14.20;99.90;;;;;;5080496;28;20242;-68
2022/04/30 07:45:25;;;;;;;4.05;3.85;;;14.30;99.90;;;;;;5071028;28;20608;-69
2022/04/30 07:47:54;;;;;;;4.13;3.83;;;14.20;99.90;;;;;;5078723;28;20294;-67
2022/04/30 07:50:22;;;;;;;3.83;3.63;;;14.20;99.90;;;;;;5071913;28;20206;-66
2022/04/30 07:52:48;;;;;;;3.90;3.70;;;14.20;99.90;;;;;;5072166;28;20195;-70
2022/04/30 07:55:15;;;;;;;3.80;3.60;;;14.30;99.90;;;;;;5059163;28;20327;-69
2022/04/30 07:57:42;;;;;;;3.60;3.40;;;14.40;99.90;;;;;;5077863;28;20290;-68
2022/04/30 08:00:11;;;;;;;3.55;3.35;;;14.30;99.90;;;;;;5066410;28;20295;-68
2022/04/30 08:02:42;;;;;;;3.60;3.40;;;14.20;99.90;;;;;;5083627;28;20274;-68
2022/04/30 08:05:09;;;;;;;3.70;3.50;;;14.00;99.90;;;;;;5078827;28;20204;-69
2022/04/30 08:07:36;;;;;;;3.92;3.60;;;13.90;99.90;;;;;;5083911;28;20198;-68
2022/04/30 08:10:03;;;;;;;3.60;3.40;;;14.00;99.90;;;;;;5082352;28;20221;-70
2022/04/30 08:12:30;;;;;;;3.53;3.33;;;14.00;99.90;;;;;;5070793;28;20290;-67
2022/04/30 08:14:57;;;;;;;3.80;3.60;;;14.00;99.90;;;;;;5068798;28;20235;-67
2022/04/30 08:17:27;;;;;;;3.75;3.55;;;14.00;99.90;;;;;;5070356;28;20596;-68
2022/04/30 08:19:55;;;;;;;3.90;3.70;;;13.90;99.90;;;;;;5071290;28;20215;-68
2022/04/30 08:22:22;;;;;;;3.05;2.95;;;14.00;99.90;;;;;;5071053;28;20211;-67
2022/04/30 08:24:49;;;;;;;3.50;3.30;;;13.90;99.90;;;;;;5072770;28;20219;-69
2022/04/30 08:27:16;;;;;;;3.97;3.70;;;13.90;99.90;;;;;;5076839;28;20300;-71
2022/04/30 08:29:44;;;;;;;3.13;3.03;;;13.90;99.90;;;;;;5077167;28;20289;-67
2022/04/30 08:32:11;;;;;;;3.53;3.30;;;13.90;99.90;;;;;;5071393;28;20595;-67
2022/04/30 08:34:39;;;;;;;3.35;3.15;;;14.00;99.90;;;;;;5070747;28;20251;-68
2022/04/30 08:37:07;;;;;;;3.13;3.00;;;14.00;99.90;;;;;;5068549;28;20223;-69
2022/04/30 08:39:34;;;;;;;3.33;3.13;;;14.00;99.90;;;;;;5068951;28;20203;-69
2022/04/30 08:42:02;;;;;;;3.33;3.13;;;14.10;99.90;;;;;;5069482;28;20254;-69
2022/04/30 08:44:29;;;;;;;3.60;3.40;;;14.00;99.90;;;;;;5070637;28;20206;-68
2022/04/30 08:46:56;;;;;;;3.70;3.50;;;13.90;99.90;;;;;;5071051;28;20326;-69
2022/04/30 08:49:23;;;;;;;3.50;3.30;;;13.90;99.90;;;;;;5069929;28;20208;-68
2022/04/30 08:51:50;;;;;;;3.87;3.67;;;13.80;99.90;;;;;;5071304;28;20275;-68
2022/04/30 08:54:19;;;;;;;4.07;3.87;;;13.80;99.90;;;;;;5074234;28;20595;-68
2022/04/30 08:56:53;;;;;;;4.10;3.90;;;13.80;99.90;;;;;;5072671;28;20769;-66
2022/04/30 08:59:20;;;;;;;3.70;3.50;;;13.80;99.90;;;;;;5070339;28;20199;-68
2022/04/30 09:01:48;;;;;;;3.60;3.40;;;14.00;99.90;;;;;;5070832;28;20713;-68
2022/04/30 09:04:15;;;;;;;4.28;4.07;;;14.10;99.90;;;;;;5078608;28;20251;-67
2022/04/30 09:06:46;;;;;;;4.35;4.15;;;14.20;99.90;;;;;;5086751;28;20255;-67
2022/04/30 09:09:27;;;;;;;4.18;3.97;;;14.40;99.90;;;;;;5091497;28;20680;-67
2022/04/30 09:11:57;;;;;;;4.07;3.87;;;14.40;99.90;;;;;;5090101;28;20213;-67
2022/04/30 09:14:25;;;;;;;4.13;3.92;;;14.40;99.90;;;;;;5051633;28;20322;-70
2022/04/30 09:17:03;;;;;;;4.10;3.90;;;14.50;99.90;;;;;;5057026;28;20745;-68
2022/04/30 09:19:30;;;;;;;3.90;3.70;;;14.70;99.90;;;;;;5065188;28;20687;-67
2022/04/30 09:21:57;;;;;;;3.60;3.40;;;14.60;99.90;;;;;;5065628;28;20231;-67
2022/04/30 09:24:25;;;;;;;3.60;3.40;;;14.60;99.90;;;;;;5064547;28;20199;-69
2022/04/30 09:26:53;;;;;;;3.47;3.30;;;14.40;99.90;;;;;;5064887;28;20230;-68
2022/04/30 09:29:21;;;;;;;3.28;3.17;;;14.40;99.90;;;;;;5067901;28;20206;-70
2022/04/30 09:31:52;;;;;;;3.63;3.42;;;14.40;99.90;;;;;;5075540;28;20233;-68
2022/04/30 09:39:50;;;;;;;3.17;3.05;;;14.90;99.90;;;;;;5069106;28;20213;-68
2022/04/30 09:42:18;;;;;;;3.10;3.00;;;15.20;99.90;;;;;;5078816;28;20203;-68
2022/04/30 09:44:44;;;;;;;2.97;2.83;;;15.10;99.90;;;;;;5070652;28;20253;-68
2022/04/30 09:47:11;;;;;;;3.40;3.20;;;15.00;99.90;;;;;;5071496;28;20263;-68
2022/04/30 09:55:09;;;;;;;3.90;3.70;;;14.50;99.90;;;;;;5052125;28;20222;-70
2022/04/30 09:57:37;;;;;;;4.27;4.07;;;14.40;99.90;;;;;;5062997;28;20198;-67
2022/04/30 10:00:08;;;;;;;4.15;3.95;;;14.50;99.90;;;;;;5073834;28;20309;-68
2022/04/30 10:02:37;;;;;;;3.85;3.65;;;14.50;99.90;;;;;;5091782;28;20728;-68
2022/04/30 10:05:04;;;;;;;3.87;3.67;;;14.40;99.90;;;;;;5097399;28;20206;-68
2022/04/30 10:07:33;;;;;;;4.05;3.75;;;14.40;99.90;;;;;;5088520;28;20263;-69
2022/04/30 10:10:08;;;;;;;4.07;3.88;;;14.60;99.90;;;;;;5092123;28;20683;-68
2022/04/30 10:12:43;;;;;;;4.10;3.90;;;14.80;99.90;;;;;;5096323;28;20547;-68
2022/04/30 10:15:18;;;;;;;3.72;3.55;;;14.60;99.90;;;;;;5095583;28;20312;-68
2022/04/30 10:17:48;;;;;;;3.70;3.50;;;14.60;99.90;;;;;;5085838;28;20202;-69
2022/04/30 10:20:28;;;;;;;3.72;3.53;;;14.30;99.90;;;;;;5088136;28;20257;-69
2022/04/30 10:22:56;;;;;;;4.43;4.22;;;14.20;99.90;;;;;;5082461;28;20241;-68
2022/04/30 10:25:34;;;;;;;4.30;4.10;;;14.20;99.90;;;;;;5078439;28;20217;-68
2022/04/30 10:28:16;;;;;;;3.70;3.50;;;14.10;99.90;;;;;;5086669;28;20253;-66
2022/04/30 10:30:44;;;;;;;3.80;3.60;;;14.20;99.90;;;;;;5074232;28;20630;-68
2022/04/30 10:33:11;;;;;;;3.90;3.70;;;14.30;99.90;;;;;;5089121;28;20209;-67
2022/04/30 10:35:39;;;;;;;4.13;3.92;;;14.60;99.90;;;;;;5082724;28;20265;-67
2022/04/30 10:38:14;;;;;;;3.53;3.40;;;14.50;99.90;;;;;;5087224;28;20304;-67
2022/04/30 10:40:43;;;;;;;4.22;3.92;;;14.80;99.90;;;;;;5079510;28;20565;-68
2022/04/30 10:43:18;;;;;;;3.80;3.60;;;15.20;99.90;;;;;;5088044;28;20206;-67
2022/04/30 10:45:45;;;;;;;4.03;3.75;;;15.40;99.90;;;;;;5083610;28;20282;-69
2022/04/30 10:48:12;;;;;;;3.45;3.25;;;15.50;99.90;;;;;;5076323;28;20207;-69
2022/04/30 10:50:40;;;;;;;3.20;3.03;;;15.60;99.90;;;;;;5081248;28;20297;-69
2022/04/30 10:53:10;;;;;;;3.42;3.30;;;15.80;99.90;;;;;;5074596;28;20208;-68
2022/04/30 10:55:38;;;;;;;3.80;3.60;;;15.80;99.90;;;;;;5077103;28;20234;-68
2022/04/30 10:58:05;;;;;;;3.28;3.17;;;15.90;99.90;;;;;;5079844;28;20727;-66
2022/04/30 11:00:33;;;;;;;3.43;3.23;;;15.90;99.90;;;;;;5071035;28;20768;-69
2022/04/30 11:03:11;;;;;;;2.90;2.80;;;15.90;99.90;;;;;;5085701;28;20230;-68
2022/04/30 11:05:41;;;;;;;3.17;3.08;;;15.80;99.90;;;;;;5080544;28;20232;-67
2022/04/30 11:08:08;;;;;;;2.50;2.40;;;15.90;99.90;;;;;;5084590;28;20764;-66
2022/04/30 11:10:36;;;;;;;2.70;2.60;;;16.00;99.90;;;;;;5095527;28;20206;-65
2022/04/30 11:13:05;;;;;;;2.90;2.70;;;16.40;99.90;;;;;;5089656;28;20218;-67
2022/04/30 11:15:33;;;;;;;2.60;2.50;;;16.40;99.90;;;;;;5067487;28;20230;-66
2022/04/30 11:18:01;;;;;;;2.67;2.58;;;16.60;99.90;;;;;;5061979;28;20299;-67
2022/04/30 11:20:28;;;;;;;2.55;2.45;;;16.60;99.90;;;;;;5067181;28;20696;-67
2022/04/30 11:22:56;;;;;;;2.63;2.53;;;16.50;99.90;;;;;;5084993;28;20269;-66
2022/04/30 11:25:33;;;;;;;2.60;2.50;;;16.40;99.90;;;;;;5093783;28;20763;-67
2022/04/30 11:28:00;;;;;;;2.93;2.83;;;16.10;99.90;;;;;;5092776;28;20208;-70
2022/04/30 11:30:27;;;;;;;2.70;2.60;;;16.20;99.90;;;;;;5093387;28;20759;-70
2022/04/30 11:32:55;;;;;;;2.13;2.03;;;16.10;99.90;;;;;;5096072;28;20203;-68
2022/04/30 11:35:22;;;;;;;2.10;2.00;;;16.40;99.90;;;;;;5076541;28;20318;-65
2022/04/30 11:37:49;;;;;;;2.30;2.20;;;16.60;99.90;;;;;;5089623;28;20213;-68
2022/04/30 11:40:16;;;;;;;2.38;2.20;;;16.80;99.90;;;;;;5083624;28;20595;-66
2022/04/30 11:42:43;;;;;;;2.20;2.10;;;16.70;99.90;;;;;;5088147;28;20306;-68
2022/04/30 11:45:10;;;;;;;2.00;1.90;;;16.40;99.90;;;;;;5072307;28;20195;-69
2022/04/30 11:47:37;;;;;;;2.13;2.03;;;16.30;99.90;;;;;;5071643;22;20712;-64
2022/04/30 11:50:08;;;;;;;1.77;1.70;;;16.40;99.90;;;;;;5041426;28;20238;-64
2022/04/30 11:52:35;;;;;;;2.28;2.17;;;16.50;99.90;;;;;;5037476;28;20282;-64
2022/04/30 11:55:04;;;;;;;2.50;2.40;;;16.60;99.90;;;;;;5044435;28;20256;-64
2022/04/30 11:57:33;;;;;;;2.20;2.10;;;16.40;99.90;;;;;;5052336;28;20310;-64
2022/04/30 12:00:00;;;;;;;2.10;2.00;;;16.50;99.90;;;;;;5051266;28;20239;-61
2022/04/30 12:02:30;;;;;;;2.10;2.00;;;16.40;99.90;;;;;;5043264;28;20198;-65
2022/04/30 12:05:02;;;;;;;2.13;2.03;;;16.40;99.90;;;;;;5037102;28;20203;-65
2022/04/30 12:07:38;;;;;;;2.15;2.05;;;16.40;99.90;;;;;;5035450;28;20224;-64
2022/04/30 12:10:16;;;;;;;2.00;1.90;;;16.30;99.90;;;;;;5048485;28;20302;-64
2022/04/30 12:12:43;;;;;;;1.65;1.60;;;16.10;99.90;;;;;;5035173;28;20199;-65
2022/04/30 12:15:19;;;;;;;1.90;1.80;;;16.30;99.90;;;;;;5034292;28;20232;-64
2022/04/30 12:17:46;;;;;;;1.90;1.80;;;16.40;99.90;;;;;;5038683;28;20315;-65
2022/04/30 12:25:48;;;;;;;1.87;1.77;;;16.50;99.90;;;;;;5020014;28;20260;-63
2022/04/30 12:28:15;;;;;;;1.60;1.60;;;16.60;99.90;;;;;;5031731;28;20686;-65
2022/04/30 12:30:53;;;;;;;1.83;1.80;;;16.60;99.90;;;;;;5032457;28;20634;-62
2022/04/30 12:33:21;;;;;;;2.20;2.10;;;16.50;99.90;;;;;;5032073;28;20243;-63
2022/04/30 12:35:54;;;;;;;1.70;1.70;;;16.20;99.90;;;;;;5031901;28;20231;-64
2022/04/30 12:38:23;;;;;;;2.10;2.00;;;16.20;99.90;;;;;;5041264;28;20540;-63
2022/04/30 12:40:50;;;;;;;2.20;2.10;;;16.30;99.90;;;;;;5035984;28;20248;-62
2022/04/30 12:43:18;;;;;;;2.00;1.90;;;16.70;99.90;;;;;;5030535;28;20205;-65
2022/04/30 12:45:46;;;;;;;2.13;2.03;;;16.60;99.90;;;;;;5026446;28;20204;-62
2022/04/30 12:48:14;;;;;;;2.00;1.90;;;16.70;99.90;;;;;;5030566;28;20308;-64
2022/04/30 12:50:41;;;;;;;1.67;1.58;;;16.40;99.90;;;;;;5029554;28;20201;-64
2022/04/30 12:53:09;;;;;;;1.93;1.83;;;16.40;99.90;;;;;;5029257;28;20204;-63
2022/04/30 12:55:39;;;;;;;2.00;1.90;;;16.60;99.90;;;;;;5030649;28;20221;-64
2022/04/30 12:58:06;;;;;;;2.10;2.00;;;16.80;99.90;;;;;;5030968;28;20287;-62
2022/04/30 13:00:33;;;;;;;2.00;1.90;;;16.90;99.90;;;;;;5031663;28;20208;-63
2022/04/30 13:03:00;;;;;;;1.83;1.73;;;16.70;99.90;;;;;;5031265;28;20228;-64
2022/04/30 13:05:27;;;;;;;2.40;2.25;;;16.70;99.90;;;;;;5030663;28;20892;-64
2022/04/30 13:07:55;;;;;;;2.00;1.90;;;16.80;99.90;;;;;;5029123;28;20209;-63
2022/04/30 13:15:48;;;;;;;2.00;1.90;;;16.40;99.90;;;;;;5043717;28;20889;-63
2022/04/30 13:18:16;;;;;;;2.10;2.00;;;16.20;99.90;;;;;;5030942;28;20243;-63
2022/04/30 13:20:43;;;;;;;2.10;2.00;;;16.20;99.90;;;;;;5032453;28;20259;-63
2022/04/30 13:23:10;;;;;;;2.20;2.10;;;16.10;99.90;;;;;;5032537;28;20609;-62
2022/04/30 13:25:37;;;;;;;2.10;2.00;;;16.00;99.90;;;;;;5032479;28;20291;-63
2022/04/30 13:28:06;;;;;;;1.90;1.80;;;16.10;99.90;;;;;;5021405;28;20217;-63
2022/04/30 13:30:33;;;;;;;2.10;2.00;;;16.30;99.90;;;;;;5035825;28;20208;-63
2022/04/30 13:33:00;;;;;;;2.20;2.10;;;16.50;99.90;;;;;;5042926;28;20770;-63
2022/04/30 13:35:27;;;;;;;2.53;2.42;;;16.80;99.90;;;;;;5030470;28;20609;-62
2022/04/30 13:37:54;;;;;;;2.05;1.95;;;16.90;99.90;;;;;;5038429;28;20575;-63
2022/04/30 13:40:21;;;;;;;2.10;2.00;;;16.90;99.90;;;;;;5049970;28;20595;-63